createdAt,value
2016-05-05T00:00:15.773Z,79.62
2016-05-05T00:01:16.104Z,79.52
2016-05-05T00:02:15.904Z,79.72
2016-05-05T00:03:15.531Z,79.72
2016-05-05T00:04:15.706Z,79.62
2016-05-05T00:05:15.708Z,79.72
2016-05-05T00:06:15.711Z,79.81
2016-05-05T00:07:15.558Z,79.62
2016-05-05T00:08:15.716Z,79.62
2016-05-05T00:09:16.486Z,79.52
2016-05-05T00:10:15.753Z,79.62
2016-05-05T00:11:15.741Z,79.62
2016-05-05T00:12:15.727Z,79.43
2016-05-05T00:13:15.714Z,79.52
2016-05-05T00:14:15.717Z,79.43
2016-05-05T00:15:15.735Z,80.29
2016-05-05T00:16:15.722Z,80.1
2016-05-05T00:18:15.744Z,80
2016-05-05T00:19:15.746Z,80.19
2016-05-05T00:20:29.812Z,80
2016-05-05T00:21:15.955Z,80
2016-05-05T00:22:15.754Z,79.62
2016-05-05T00:23:15.741Z,79.43
2016-05-05T00:24:15.588Z,79.43
2016-05-05T00:25:15.746Z,79.52
2016-05-05T00:26:15.593Z,79.62
2016-05-05T00:27:15.768Z,79.72
2016-05-05T00:28:15.786Z,79.62
2016-05-05T00:29:15.992Z,79.62
2016-05-05T00:30:15.603Z,79.72
2016-05-05T00:31:15.967Z,79.52
2016-05-05T00:32:15.765Z,79.52
2016-05-05T00:33:15.767Z,79.81
2016-05-05T00:34:15.975Z,79.43
2016-05-05T00:35:15.773Z,79.72
2016-05-05T00:36:15.995Z,79.52
2016-05-05T00:37:15.779Z,79.43
2016-05-05T00:38:16.047Z,79.43
2016-05-05T00:39:16.253Z,79.52
2016-05-05T00:41:15.993Z,79.52
2016-05-05T00:42:15.792Z,79.52
2016-05-05T00:43:15.999Z,79.62
2016-05-05T00:44:15.797Z,79.33
2016-05-05T00:45:15.800Z,79.72
2016-05-05T00:46:15.834Z,79.43
2016-05-05T00:47:15.806Z,79.43
2016-05-05T00:48:15.808Z,79.72
2016-05-05T00:49:15.811Z,79.43
2016-05-05T00:50:15.845Z,79.43
2016-05-05T00:51:15.833Z,79.72
2016-05-05T00:52:29.898Z,79.62
2016-05-05T00:53:15.822Z,79.62
2016-05-05T00:54:15.887Z,79.52
2016-05-05T00:55:15.827Z,79.62
2016-05-05T00:56:15.830Z,79.77
2016-05-05T00:57:15.833Z,79.68
2016-05-05T00:58:15.836Z,79.3
2016-05-05T01:00:15.825Z,79.77
2016-05-05T01:01:15.843Z,79.68
2016-05-05T01:02:15.878Z,79.77
2016-05-05T01:03:16.052Z,79.86
2016-05-05T01:04:15.695Z,79.86
2016-05-05T01:05:16.058Z,79.68
2016-05-05T01:06:15.842Z,79.68
2016-05-05T01:07:15.844Z,79.77
2016-05-05T01:08:15.847Z,79.49
2016-05-05T01:09:15.693Z,79.77
2016-05-05T01:10:15.867Z,79.58
2016-05-05T01:11:15.714Z,79.49
2016-05-05T01:12:15.872Z,79.49
2016-05-05T01:13:15.860Z,79.49
2016-05-05T01:14:15.691Z,79.49
2016-05-05T01:15:15.866Z,79.58
2016-05-05T01:16:15.869Z,79.49
2016-05-05T01:17:15.871Z,79.58
2016-05-05T01:18:30.171Z,79.39
2016-05-05T01:19:15.876Z,79.3
2016-05-05T01:20:15.910Z,79.58
2016-05-05T01:21:15.882Z,79.35
2016-05-05T01:22:29.947Z,79.73
2016-05-05T01:23:15.871Z,79.73
2016-05-05T01:24:15.718Z,79.83
2016-05-05T01:25:15.877Z,79.35
2016-05-05T01:26:15.880Z,79.63
2016-05-05T01:27:15.742Z,80.02
2016-05-05T01:28:16.120Z,79.54
2016-05-05T01:29:15.887Z,79.54
2016-05-05T01:30:15.875Z,79.35
2016-05-05T01:31:15.737Z,79.35
2016-05-05T01:32:15.881Z,79.54
2016-05-05T01:33:15.883Z,79.54
2016-05-05T01:34:15.886Z,79.63
2016-05-05T01:35:15.717Z,79.54
2016-05-05T01:36:15.923Z,79.54
2016-05-05T01:37:15.894Z,79.44
2016-05-05T01:38:15.897Z,79.63
2016-05-05T01:39:16.102Z,79.35
2016-05-05T01:40:15.777Z,79.44
2016-05-05T01:41:15.889Z,79.54
2016-05-05T01:42:15.892Z,79.63
2016-05-05T01:43:15.894Z,79.35
2016-05-05T01:44:15.913Z,80.02
2016-05-05T01:45:15.931Z,79.92
2016-05-05T01:46:16.121Z,79.83
2016-05-05T01:47:15.920Z,80.21
2016-05-05T01:48:16.094Z,80.11
2016-05-05T01:49:15.894Z,79.83
2016-05-05T01:50:29.975Z,80.4
2016-05-05T01:51:16.150Z,80.21
2016-05-05T01:52:15.923Z,80.58
2016-05-05T01:53:15.968Z,80.11
2016-05-05T01:54:16.155Z,80.49
2016-05-05T01:55:16.044Z,80.4
2016-05-05T01:57:16.121Z,80.21
2016-05-05T01:58:16.170Z,80.4
2016-05-05T01:59:16.219Z,80.58
2016-05-05T02:00:16.222Z,80.3
2016-05-05T02:01:16.178Z,79.92
2016-05-05T02:02:16.207Z,80.21
2016-05-05T02:03:16.184Z,80.49
2016-05-05T02:04:30.285Z,80.4
2016-05-05T02:05:16.217Z,80.11
2016-05-05T02:06:16.225Z,80.26
2016-05-05T02:07:16.215Z,80.3
2016-05-05T02:08:16.424Z,80.21
2016-05-05T02:09:17.757Z,79.97
2016-05-05T02:10:16.495Z,80.45
2016-05-05T02:11:15.999Z,80.26
2016-05-05T02:12:16.442Z,80.4
2016-05-05T02:13:16.242Z,80.55
2016-05-05T02:15:16.234Z,80.64
2016-05-05T02:16:16.236Z,80.64
2016-05-05T02:17:16.240Z,80.64
2016-05-05T02:18:16.430Z,80.45
2016-05-05T02:19:16.277Z,80.35
2016-05-05T02:20:16.249Z,80.74
2016-05-05T02:21:16.236Z,80.64
2016-05-05T02:22:16.240Z,80.45
2016-05-05T02:23:16.900Z,80.45
2016-05-05T02:24:16.246Z,80.64
2016-05-05T02:25:16.249Z,80.55
2016-05-05T02:26:16.251Z,80.83
2016-05-05T02:27:16.457Z,80.93
2016-05-05T02:28:16.273Z,80.64
2016-05-05T02:29:16.260Z,80.55
2016-05-05T02:30:16.685Z,80.55
2016-05-05T02:31:16.468Z,80.35
2016-05-05T02:32:16.253Z,80.64
2016-05-05T02:33:16.255Z,80.64
2016-05-05T02:34:16.258Z,80.74
2016-05-05T02:35:16.261Z,80.74
2016-05-05T02:36:16.278Z,80.64
2016-05-05T02:37:16.250Z,80.26
2016-05-05T02:38:16.253Z,80.93
2016-05-05T02:39:16.522Z,80.83
2016-05-05T02:40:16.243Z,80.93
2016-05-05T02:41:16.261Z,80.51
2016-05-05T02:42:16.248Z,80.74
2016-05-05T02:43:16.266Z,80.6
2016-05-05T02:44:16.301Z,80.51
2016-05-05T02:45:16.444Z,80.41
2016-05-05T02:46:16.243Z,80.32
2016-05-05T02:47:16.449Z,80.51
2016-05-05T02:48:16.233Z,80.6
2016-05-05T02:49:16.235Z,80.98
2016-05-05T02:50:16.255Z,80.51
2016-05-05T02:51:16.882Z,80.22
2016-05-05T02:52:16.275Z,80.32
2016-05-05T02:53:16.465Z,81.07
2016-05-05T02:54:16.140Z,80.79
2016-05-05T02:55:16.252Z,80.88
2016-05-05T02:56:16.458Z,81.55
2016-05-05T02:57:16.273Z,81.26
2016-05-05T02:59:16.247Z,81.45
2016-05-05T03:00:16.250Z,81.26
2016-05-05T03:01:16.096Z,80.51
2016-05-05T03:02:16.240Z,80.69
2016-05-05T03:03:16.289Z,80.69
2016-05-05T03:04:16.260Z,81.26
2016-05-05T03:05:16.451Z,80.98
2016-05-05T03:06:16.250Z,80.98
2016-05-05T03:07:16.237Z,81.45
2016-05-05T03:08:16.240Z,81.45
2016-05-05T03:09:16.259Z,81.65
2016-05-05T03:11:16.247Z,81.26
2016-05-05T03:12:16.078Z,81.26
2016-05-05T03:13:16.238Z,81.55
2016-05-05T03:14:16.084Z,81.17
2016-05-05T03:15:16.258Z,80.88
2016-05-05T03:16:16.277Z,80.51
2016-05-05T03:17:16.483Z,80.41
2016-05-05T03:18:16.267Z,80.41
2016-05-05T03:19:16.442Z,80.41
2016-05-05T03:20:16.225Z,80.13
2016-05-05T03:21:16.227Z,80.32
2016-05-05T03:22:16.074Z,80.32
2016-05-05T03:23:16.249Z,81.36
2016-05-05T03:24:16.674Z,80.41
2016-05-05T03:25:16.255Z,81.45
2016-05-05T03:26:16.882Z,81.55
2016-05-05T03:27:16.838Z,81.45
2016-05-05T03:28:16.246Z,80.98
2016-05-05T03:29:16.250Z,80.32
2016-05-05T03:30:16.252Z,80.32
2016-05-05T03:31:16.442Z,80.69
2016-05-05T03:32:30.507Z,80.41
2016-05-05T03:33:16.635Z,80.6
2016-05-05T03:34:16.232Z,80.98
2016-05-05T03:35:16.079Z,81.45
2016-05-05T03:36:16.456Z,81.17
2016-05-05T03:37:16.240Z,80.98
2016-05-05T03:38:16.477Z,81.17
2016-05-05T03:39:16.667Z,81.26
2016-05-05T03:40:16.264Z,81.26
2016-05-05T03:41:16.234Z,81.17
2016-05-05T03:42:16.237Z,81.17
2016-05-05T03:43:16.240Z,81.17
2016-05-05T03:44:16.243Z,81.36
2016-05-05T03:45:16.636Z,81.93
2016-05-05T03:46:16.420Z,81.36
2016-05-05T03:47:16.470Z,81.36
2016-05-05T03:48:16.223Z,81.26
2016-05-05T03:49:16.444Z,81.36
2016-05-05T03:50:16.227Z,81.17
2016-05-05T03:51:15.777Z,81.26
2016-05-05T03:52:16.249Z,80.98
2016-05-05T03:53:16.454Z,81.36
2016-05-05T03:54:16.238Z,81.17
2016-05-05T03:55:16.226Z,81.26
2016-05-05T03:56:16.229Z,81.26
2016-05-05T03:57:16.216Z,81.26
2016-05-05T03:58:16.218Z,81.07
2016-05-05T03:59:16.268Z,81.17
2016-05-05T04:00:16.254Z,81.07
2016-05-05T04:01:16.242Z,81.07
2016-05-05T04:02:16.213Z,81.55
2016-05-05T04:03:16.231Z,81.07
2016-05-05T04:04:16.250Z,81.17
2016-05-05T04:05:16.221Z,81.07
2016-05-05T04:06:16.256Z,81.36
2016-05-05T04:07:16.227Z,81.84
2016-05-05T04:08:16.214Z,81.74
2016-05-05T04:09:17.685Z,81.07
2016-05-05T04:10:16.219Z,81.17
2016-05-05T04:11:16.425Z,80.98
2016-05-05T04:12:16.240Z,81.26
2016-05-05T04:13:16.228Z,80.98
2016-05-05T04:14:16.214Z,81.07
2016-05-05T04:15:16.217Z,81.07
2016-05-05T04:16:16.470Z,81.17
2016-05-05T04:17:16.270Z,81.07
2016-05-05T04:18:16.209Z,81.26
2016-05-05T04:19:16.212Z,81.26
2016-05-05T04:20:16.214Z,81.65
2016-05-05T04:21:16.046Z,81.36
2016-05-05T04:22:16.220Z,81.65
2016-05-05T04:23:16.644Z,81.74
2016-05-05T04:24:16.397Z,81.93
2016-05-05T04:25:16.213Z,81.93
2016-05-05T04:26:16.247Z,81.93
2016-05-05T04:27:16.203Z,81.45
2016-05-05T04:28:16.236Z,81.07
2016-05-05T04:29:16.224Z,80.98
2016-05-05T04:30:16.241Z,81.55
2016-05-05T04:31:16.213Z,81.45
2016-05-05T04:32:16.201Z,81.65
2016-05-05T04:33:16.218Z,81.17
2016-05-05T04:34:16.221Z,81.36
2016-05-05T04:35:16.223Z,81.36
2016-05-05T04:36:16.212Z,81.07
2016-05-05T04:37:16.214Z,81.07
2016-05-05T04:38:16.201Z,81.26
2016-05-05T04:39:16.610Z,80.88
2016-05-05T04:40:16.206Z,81.17
2016-05-05T04:41:30.287Z,81.36
2016-05-05T04:42:16.212Z,81.26
2016-05-05T04:43:16.651Z,80.98
2016-05-05T04:44:16.295Z,81.17
2016-05-05T04:45:16.251Z,81.02
2016-05-05T04:46:16.207Z,81.12
2016-05-05T04:47:16.053Z,81.02
2016-05-05T04:48:16.211Z,81.21
2016-05-05T04:49:16.215Z,81.59
2016-05-05T04:50:16.233Z,81.3
2016-05-05T04:51:16.205Z,81.4
2016-05-05T04:52:16.222Z,81.4
2016-05-05T04:53:16.226Z,81.12
2016-05-05T04:54:16.088Z,81.49
2016-05-05T04:55:16.230Z,81.21
2016-05-05T04:56:16.062Z,81.3
2016-05-05T04:57:16.221Z,81.49
2016-05-05T04:58:16.410Z,81.49
2016-05-05T04:59:16.242Z,81.59
2016-05-05T05:00:16.229Z,81.49
2016-05-05T05:01:16.216Z,80.45
2016-05-05T05:02:16.219Z,80.64
2016-05-05T05:03:16.221Z,80.64
2016-05-05T05:04:16.223Z,80.83
2016-05-05T05:05:16.226Z,80.64
2016-05-05T05:06:16.230Z,80.55
2016-05-05T05:07:16.263Z,80.74
2016-05-05T05:08:16.266Z,80.64
2016-05-05T05:09:16.096Z,80.93
2016-05-05T05:10:16.240Z,80.68
2016-05-05T05:11:16.226Z,80.4
2016-05-05T05:12:16.230Z,80.4
2016-05-05T05:13:16.232Z,80.58
2016-05-05T05:14:16.235Z,80.58
2016-05-05T05:15:16.254Z,81.25
2016-05-05T05:16:16.444Z,80.96
2016-05-05T05:17:16.242Z,81.35
2016-05-05T05:18:16.277Z,81.44
2016-05-05T05:19:16.233Z,81.44
2016-05-05T05:20:16.251Z,80.96
2016-05-05T05:21:16.254Z,81.06
2016-05-05T05:22:16.272Z,81.16
2016-05-05T05:23:16.244Z,81.54
2016-05-05T05:24:16.450Z,81.35
2016-05-05T05:25:16.093Z,81.44
2016-05-05T05:26:16.236Z,81.44
2016-05-05T05:27:16.254Z,81.25
2016-05-05T05:28:16.241Z,81.06
2016-05-05T05:29:16.260Z,81.54
2016-05-05T05:30:16.263Z,81.16
2016-05-05T05:31:16.484Z,81.35
2016-05-05T05:32:16.283Z,81.54
2016-05-05T05:33:16.255Z,81.16
2016-05-05T05:34:16.257Z,81.06
2016-05-05T05:35:16.104Z,81.35
2016-05-05T05:36:16.263Z,81.06
2016-05-05T05:37:16.281Z,81.06
2016-05-05T05:38:16.315Z,81.63
2016-05-05T05:39:15.818Z,81.16
2016-05-05T05:40:16.274Z,81.06
2016-05-05T05:41:16.276Z,81.29
2016-05-05T05:42:16.310Z,81.2
2016-05-05T05:43:16.281Z,81.35
2016-05-05T05:44:16.269Z,81.1
2016-05-05T05:45:16.287Z,81.2
2016-05-05T05:46:16.275Z,81.29
2016-05-05T05:47:16.183Z,80.63
2016-05-05T05:48:16.280Z,80.91
2016-05-05T05:49:16.283Z,80.24
2016-05-05T05:50:16.300Z,80.44
2016-05-05T05:51:16.147Z,80.53
2016-05-05T05:52:15.837Z,80.44
2016-05-05T05:53:15.824Z,80.63
2016-05-05T05:54:16.530Z,80.72
2016-05-05T05:55:16.299Z,80.63
2016-05-05T05:56:16.301Z,80.44
2016-05-05T05:57:16.304Z,81.1
2016-05-05T05:58:16.307Z,80.91
2016-05-05T05:59:16.325Z,81.48
2016-05-05T06:00:16.312Z,81.38
2016-05-05T06:01:16.299Z,81.38
2016-05-05T06:02:16.317Z,81.48
2016-05-05T06:03:15.866Z,80.86
2016-05-05T06:04:16.510Z,80.63
2016-05-05T06:05:16.326Z,80.38
2016-05-05T06:06:16.329Z,80.86
2016-05-05T06:07:16.346Z,80.76
2016-05-05T06:08:16.317Z,80.76
2016-05-05T06:09:16.836Z,80.95
2016-05-05T06:10:16.574Z,80.86
2016-05-05T06:11:16.342Z,80.66
2016-05-05T06:12:16.375Z,80.76
2016-05-05T06:13:16.362Z,80.66
2016-05-05T06:14:16.193Z,81.05
2016-05-05T06:15:16.383Z,80.57
2016-05-05T06:16:16.355Z,80.57
2016-05-05T06:17:16.358Z,80.86
2016-05-05T06:18:16.563Z,80.47
2016-05-05T06:19:16.363Z,80.38
2016-05-05T06:20:16.350Z,80.86
2016-05-05T06:21:16.384Z,80.47
2016-05-05T06:22:16.371Z,80.57
2016-05-05T06:23:16.368Z,80.47
2016-05-05T06:24:16.683Z,80.86
2016-05-05T06:25:16.373Z,80.57
2016-05-05T06:26:16.564Z,80.86
2016-05-05T06:27:16.379Z,80.95
2016-05-05T06:28:16.396Z,80.66
2016-05-05T06:29:16.227Z,80.86
2016-05-05T06:30:16.402Z,80.66
2016-05-05T06:31:16.624Z,80.86
2016-05-05T06:32:16.408Z,80.66
2016-05-05T06:33:16.426Z,80.19
2016-05-05T06:34:16.820Z,80.1
2016-05-05T06:35:16.415Z,80.1
2016-05-05T06:36:16.403Z,80.76
2016-05-05T06:37:16.406Z,80.38
2016-05-05T06:38:16.408Z,80.29
2016-05-05T06:39:16.739Z,80.71
2016-05-05T06:40:16.414Z,80.71
2016-05-05T06:41:16.416Z,80.42
2016-05-05T06:42:16.279Z,80.9
2016-05-05T06:43:16.469Z,80.52
2016-05-05T06:44:16.425Z,80.61
2016-05-05T06:45:16.427Z,80.71
2016-05-05T06:46:16.289Z,80.8
2016-05-05T06:47:16.433Z,80.33
2016-05-05T06:48:16.466Z,80.13
2016-05-05T06:49:16.438Z,79.94
2016-05-05T06:50:16.456Z,80.04
2016-05-05T06:51:16.302Z,79.66
2016-05-05T06:52:16.446Z,80.33
2016-05-05T06:53:16.464Z,80.33
2016-05-05T06:54:16.311Z,80.23
2016-05-05T06:55:16.469Z,79.94
2016-05-05T06:56:16.472Z,79.47
2016-05-05T06:57:16.475Z,79.75
2016-05-05T06:58:16.493Z,79.57
2016-05-05T06:59:16.715Z,79.47
2016-05-05T07:00:16.482Z,78.99
2016-05-05T07:01:16.518Z,79.28
2016-05-05T07:02:16.488Z,79.32
2016-05-05T07:03:16.491Z,78.94
2016-05-05T07:04:16.494Z,79.19
2016-05-05T07:05:16.529Z,78.9
2016-05-05T07:06:16.499Z,79.09
2016-05-05T07:07:16.346Z,79.22
2016-05-05T07:08:16.364Z,78.9
2016-05-05T07:09:16.710Z,79.38
2016-05-05T07:10:16.526Z,79.03
2016-05-05T07:11:16.544Z,79.22
2016-05-05T07:12:16.531Z,79.6
2016-05-05T07:13:16.534Z,79.6
2016-05-05T07:14:16.537Z,79.03
2016-05-05T07:15:16.414Z,78.94
2016-05-05T07:16:16.557Z,79.41
2016-05-05T07:17:16.545Z,78.27
2016-05-05T07:18:16.594Z,78.75
2016-05-05T07:19:16.800Z,78.94
2016-05-05T07:20:16.568Z,78.65
2016-05-05T07:21:16.758Z,77.89
2016-05-05T07:22:16.574Z,78.46
2016-05-05T07:24:16.438Z,78.56
2016-05-05T07:25:16.582Z,78.65
2016-05-05T07:26:16.600Z,78.56
2016-05-05T07:27:16.430Z,78.65
2016-05-05T07:28:16.605Z,77.8
2016-05-05T07:29:16.796Z,78.03
2016-05-05T07:30:16.611Z,78.12
2016-05-05T07:31:16.629Z,77.74
2016-05-05T07:32:16.616Z,77.83
2016-05-05T07:33:16.650Z,77.55
2016-05-05T07:34:16.652Z,77.64
2016-05-05T07:35:16.624Z,76.88
2016-05-05T07:36:16.658Z,76.98
2016-05-05T07:37:16.629Z,75.49
2016-05-05T07:38:16.492Z,74.63
2016-05-05T07:39:17.072Z,74.92
2016-05-05T07:40:16.498Z,74.06
2016-05-05T07:41:16.656Z,74.54
2016-05-05T07:42:16.689Z,73.3
2016-05-05T07:43:16.521Z,73.87
2016-05-05T07:44:16.695Z,73.68
2016-05-05T07:45:16.729Z,74.25
2016-05-05T07:46:16.684Z,73.81
2016-05-05T07:47:16.906Z,73.33
2016-05-05T07:48:16.722Z,74.1
2016-05-05T07:49:16.708Z,73.72
2016-05-05T07:50:16.712Z,74.1
2016-05-05T07:51:16.558Z,74.1
2016-05-05T07:52:16.733Z,74.19
2016-05-05T07:53:16.735Z,73.94
2016-05-05T07:54:16.581Z,73.66
2016-05-05T07:55:16.755Z,72.61
2016-05-05T07:56:16.758Z,71.75
2016-05-05T07:57:16.793Z,70.03
2016-05-05T07:58:16.764Z,70.89
2016-05-05T07:59:16.767Z,68.88
2016-05-05T08:00:16.785Z,68.03
2016-05-05T08:01:16.804Z,68.6
2016-05-05T08:02:16.649Z,68.51
2016-05-05T08:03:16.793Z,69.56
2016-05-05T08:04:16.812Z,68.7
2016-05-05T08:05:16.815Z,69.74
2016-05-05T08:06:16.818Z,70.13
2016-05-05T08:07:16.835Z,68.32
2016-05-05T08:08:17.040Z,68.88
2016-05-05T08:09:16.841Z,69.27
2016-05-05T08:10:16.874Z,68.6
2016-05-05T08:11:16.862Z,68.98
2016-05-05T08:12:16.864Z,68.63
2016-05-05T08:13:16.867Z,67.87
2016-05-05T08:14:16.885Z,68.51
2016-05-05T08:15:16.873Z,67.46
2016-05-05T08:16:16.890Z,67.01
2016-05-05T08:17:16.892Z,66.6
2016-05-05T08:18:16.912Z,67.36
2016-05-05T08:19:16.898Z,68.7
2016-05-05T08:20:16.917Z,68.32
2016-05-05T08:21:16.920Z,67.97
2016-05-05T08:23:16.941Z,68.63
2016-05-05T08:24:16.803Z,68.54
2016-05-05T08:25:16.961Z,67.87
2016-05-05T08:26:16.792Z,67.3
2016-05-05T08:27:16.983Z,67.77
2016-05-05T08:29:16.988Z,66.06
2016-05-05T08:30:31.272Z,65.1
2016-05-05T08:31:17.010Z,66.56
2016-05-05T08:32:17.027Z,65.33
2016-05-05T08:33:17.030Z,65.39
2016-05-05T08:34:17.033Z,65.9
2016-05-05T08:35:17.020Z,64.94
2016-05-05T08:36:17.038Z,65.42
2016-05-05T08:37:17.041Z,64.56
2016-05-05T08:38:17.059Z,64.28
2016-05-05T08:39:16.887Z,66.28
2016-05-05T08:40:17.077Z,65.45
2016-05-05T08:41:17.079Z,65.07
2016-05-05T08:42:17.082Z,64.02
2016-05-05T08:43:17.101Z,63.93
2016-05-05T08:44:17.104Z,63.83
2016-05-05T08:45:17.309Z,61.44
2016-05-05T08:46:17.110Z,62.11
2016-05-05T08:47:17.143Z,62.11
2016-05-05T08:48:17.130Z,62.97
2016-05-05T08:49:17.133Z,62.4
2016-05-05T08:50:17.151Z,61.63
2016-05-05T08:51:17.154Z,61.72
2016-05-05T08:52:17.375Z,57.43
2016-05-05T08:53:17.034Z,57.9
2016-05-05T08:54:17.194Z,60.49
2016-05-05T08:55:17.196Z,59.24
2016-05-05T08:56:17.199Z,57.43
2016-05-05T08:57:17.217Z,55.8
2016-05-05T08:58:17.220Z,58
2016-05-05T08:59:17.222Z,58.03
2016-05-05T09:00:17.240Z,59.63
2016-05-05T09:01:17.275Z,58.7
2016-05-05T09:02:17.262Z,56.5
2016-05-05T09:03:17.107Z,57.55
2016-05-05T09:04:17.283Z,57.84
2016-05-05T09:05:17.691Z,58.8
2016-05-05T09:06:17.132Z,57.75
2016-05-05T09:07:17.321Z,56.79
2016-05-05T09:08:17.340Z,58.03
2016-05-05T09:09:17.405Z,56.79
2016-05-05T09:10:17.330Z,58.51
2016-05-05T09:11:17.364Z,59.47
2016-05-05T09:12:17.585Z,58.89
2016-05-05T09:13:17.354Z,59.18
2016-05-05T09:14:17.216Z,60.71
2016-05-05T09:15:17.375Z,59.84
2016-05-05T09:16:17.393Z,60.23
2016-05-05T09:17:17.381Z,59.18
2016-05-05T09:18:17.634Z,59.27
2016-05-05T09:19:17.603Z,59.94
2016-05-05T09:20:17.420Z,60.04
2016-05-05T09:21:17.453Z,60.04
2016-05-05T09:22:17.440Z,60.52
2016-05-05T09:23:17.303Z,59.08
2016-05-05T09:24:17.539Z,59.27
2016-05-05T09:25:17.464Z,58.8
2016-05-05T09:26:17.482Z,59.27
2016-05-05T09:27:17.329Z,58.8
2016-05-05T09:28:17.519Z,59.56
2016-05-05T09:29:17.506Z,60.71
2016-05-05T09:30:17.510Z,57.84
2016-05-05T09:31:17.534Z,56.98
2016-05-05T09:32:17.726Z,57.46
2016-05-05T09:33:17.541Z,57.26
2016-05-05T09:34:17.544Z,56.21
2016-05-05T09:35:17.405Z,57.26
2016-05-05T09:36:17.752Z,55.26
2016-05-05T09:37:17.411Z,55.16
2016-05-05T09:38:17.569Z,55.45
2016-05-05T09:39:17.665Z,56.31
2016-05-05T09:40:17.591Z,53.16
2016-05-05T09:41:17.609Z,54.23
2016-05-05T09:42:17.616Z,53.37
2016-05-05T09:43:17.624Z,53.16
2016-05-05T09:44:17.627Z,52.99
2016-05-05T09:45:17.645Z,53.94
2016-05-05T09:46:17.928Z,53.75
2016-05-05T09:47:17.682Z,54.14
2016-05-05T09:48:19.950Z,54.14
2016-05-05T09:49:17.687Z,52.32
2016-05-05T09:50:17.721Z,53.28
2016-05-05T09:51:17.692Z,54.61
2016-05-05T09:52:17.726Z,55.47
2016-05-05T09:53:17.573Z,55
2016-05-05T09:54:18.497Z,55.57
2016-05-05T09:55:17.734Z,55.38
2016-05-05T09:56:17.737Z,55.57
2016-05-05T09:57:17.755Z,56.43
2016-05-05T09:58:17.758Z,54.52
2016-05-05T09:59:32.044Z,55.38
2016-05-05T10:00:17.810Z,56.15
2016-05-05T10:01:17.985Z,56.62
2016-05-05T10:02:17.675Z,56.15
2016-05-05T10:03:17.834Z,55.96
2016-05-05T10:04:17.821Z,55.76
2016-05-05T10:05:18.026Z,55.38
2016-05-05T10:06:17.842Z,55.57
2016-05-05T10:07:17.845Z,56.53
2016-05-05T10:08:17.863Z,55.96
2016-05-05T10:09:17.865Z,55.67
2016-05-05T10:10:18.009Z,54.52
2016-05-05T10:11:17.934Z,55.29
2016-05-05T10:12:17.904Z,55.07
2016-05-05T10:13:18.127Z,55.35
2016-05-05T10:14:17.942Z,56.6
2016-05-05T10:15:17.928Z,57.65
2016-05-05T10:16:17.932Z,56.88
2016-05-05T10:17:17.934Z,58.03
2016-05-05T10:18:18.155Z,58.98
2016-05-05T10:19:17.815Z,57.84
2016-05-05T10:20:18.020Z,57.36
2016-05-05T10:21:18.007Z,59.66
2016-05-05T10:22:17.979Z,57.55
2016-05-05T10:23:18.013Z,57.55
2016-05-05T10:24:18.156Z,59.37
2016-05-05T10:25:18.018Z,59.3
2016-05-05T10:26:18.005Z,58.03
2016-05-05T10:27:17.867Z,58.61
2016-05-05T10:28:18.386Z,59.27
2016-05-05T10:29:18.044Z,59.3
2016-05-05T10:30:18.047Z,59.4
2016-05-05T10:31:17.924Z,59.59
2016-05-05T10:32:18.068Z,59.88
2016-05-05T10:33:18.087Z,59.11
2016-05-05T10:34:18.089Z,59.97
2016-05-05T10:35:18.139Z,60.26
2016-05-05T10:36:18.110Z,60.55
2016-05-05T10:37:17.957Z,60.06
2016-05-05T10:38:18.147Z,61.6
2016-05-05T10:39:18.524Z,60.55
2016-05-05T10:40:18.152Z,61.6
2016-05-05T10:41:18.154Z,61.79
2016-05-05T10:42:18.157Z,59.49
2016-05-05T10:43:18.176Z,60.06
2016-05-05T10:44:18.179Z,60.35
2016-05-05T10:45:18.400Z,60.45
2016-05-05T10:46:18.043Z,59.97
2016-05-05T10:48:18.206Z,60.26
2016-05-05T10:49:18.223Z,58.86
2016-05-05T10:50:18.226Z,58.54
2016-05-05T10:51:18.291Z,58.95
2016-05-05T10:52:18.247Z,59.33
2016-05-05T10:53:18.265Z,60.29
2016-05-05T10:55:18.474Z,60
2016-05-05T10:56:18.289Z,60.67
2016-05-05T10:57:18.292Z,60.1
2016-05-05T10:58:18.294Z,60.58
2016-05-05T10:59:18.360Z,60.48
2016-05-05T11:00:18.391Z,60.86
2016-05-05T11:01:18.437Z,58.86
2016-05-05T11:02:18.546Z,58.09
2016-05-05T11:03:19.170Z,58.47
2016-05-05T11:05:18.606Z,58.56
2016-05-05T11:06:18.874Z,59.72
2016-05-05T11:07:18.705Z,59.05
2016-05-05T11:08:32.767Z,58.18
2016-05-05T11:09:19.751Z,57.9
2016-05-05T11:10:18.728Z,57.61
2016-05-05T11:11:18.736Z,57.8
2016-05-05T11:12:18.744Z,58.47
2016-05-05T11:13:18.799Z,58.76
2016-05-05T11:14:18.647Z,58.98
2016-05-05T11:15:18.621Z,59.36
2016-05-05T11:16:19.031Z,58.59
2016-05-05T11:17:18.802Z,57.83
2016-05-05T11:18:18.806Z,57.73
2016-05-05T11:19:18.827Z,56.87
2016-05-05T11:20:18.673Z,59.75
2016-05-05T11:21:18.848Z,56.3
2016-05-05T11:22:18.852Z,57.54
2016-05-05T11:23:18.712Z,59.08
2016-05-05T11:24:18.996Z,59.27
2016-05-05T11:25:18.874Z,58.22
2016-05-05T11:26:18.877Z,58.34
2016-05-05T11:27:18.427Z,56.39
2016-05-05T11:28:18.914Z,56.81
2016-05-05T11:29:18.917Z,56.99
2016-05-05T11:30:18.920Z,56.9
2016-05-05T11:31:18.954Z,57.95
2016-05-05T11:32:18.942Z,58.15
2016-05-05T11:33:18.976Z,57.57
2016-05-05T11:34:19.166Z,58.15
2016-05-05T11:35:18.980Z,56.64
2016-05-05T11:36:33.064Z,55.49
2016-05-05T11:37:18.986Z,55.49
2016-05-05T11:38:19.004Z,55.68
2016-05-05T11:39:19.179Z,56.64
2016-05-05T11:40:19.026Z,57.5
2016-05-05T11:41:19.028Z,56.07
2016-05-05T11:42:19.297Z,55.62
2016-05-05T11:44:19.052Z,55.8
2016-05-05T11:45:19.070Z,55.8
2016-05-05T11:46:19.074Z,56.76
2016-05-05T11:47:19.076Z,57.06
2016-05-05T11:48:18.938Z,56.7
2016-05-05T11:49:19.112Z,56.22
2016-05-05T11:50:19.115Z,55.55
2016-05-05T11:51:18.680Z,56.12
2016-05-05T11:52:33.217Z,53.15
2016-05-05T11:53:19.389Z,51.81
2016-05-05T11:54:19.298Z,51.42
2016-05-05T11:55:19.176Z,51.61
2016-05-05T11:56:19.194Z,52.48
2016-05-05T11:57:19.228Z,52.86
2016-05-05T11:58:19.231Z,53.34
2016-05-05T11:59:19.233Z,52.69
2016-05-05T12:00:19.251Z,52.98
2016-05-05T12:01:19.269Z,51.73
2016-05-05T12:02:19.256Z,51.73
2016-05-05T12:03:19.259Z,52.79
2016-05-05T12:04:19.028Z,52.6
2016-05-05T12:05:19.297Z,52.22
2016-05-05T12:06:19.299Z,51.35
2016-05-05T12:07:19.958Z,50.78
2016-05-05T12:08:19.319Z,50.68
2016-05-05T12:09:19.338Z,50.49
2016-05-05T12:10:19.216Z,50.39
2016-05-05T12:11:19.578Z,50.2
2016-05-05T12:12:19.377Z,50.78
2016-05-05T12:13:19.380Z,50.96
2016-05-05T12:14:19.398Z,50.2
2016-05-05T12:15:19.401Z,51.35
2016-05-05T12:16:19.418Z,50.87
2016-05-05T12:17:19.438Z,50.01
2016-05-05T12:18:33.521Z,51.16
2016-05-05T12:19:19.490Z,51.25
2016-05-05T12:20:19.462Z,49.91
2016-05-05T12:21:19.479Z,49.62
2016-05-05T12:22:19.482Z,49.52
2016-05-05T12:23:19.500Z,51.73
2016-05-05T12:24:19.503Z,51.67
2016-05-05T12:25:19.522Z,50.9
2016-05-05T12:26:19.368Z,50.8
2016-05-05T12:27:19.934Z,51.47
2016-05-05T12:28:19.404Z,51.67
2016-05-05T12:29:19.579Z,51.86
2016-05-05T12:30:19.581Z,52.14
2016-05-05T12:31:19.601Z,50.7
2016-05-05T12:32:19.603Z,50.32
2016-05-05T12:33:19.636Z,49.93
2016-05-05T12:34:19.639Z,50.32
2016-05-05T12:35:19.642Z,49.17
2016-05-05T12:36:19.660Z,49.38
2016-05-05T12:37:19.663Z,49.36
2016-05-05T12:38:19.697Z,50.63
2016-05-05T12:39:19.700Z,51.21
2016-05-05T12:40:19.733Z,49.38
2016-05-05T12:41:19.955Z,48.9
2016-05-05T12:42:19.724Z,49.48
2016-05-05T12:43:19.741Z,49.67
2016-05-05T12:44:19.744Z,50.34
2016-05-05T12:45:19.763Z,48.52
2016-05-05T12:46:19.782Z,48.13
2016-05-05T12:47:19.627Z,48.9
2016-05-05T12:48:19.802Z,49.19
2016-05-05T12:49:20.008Z,49.29
2016-05-05T12:50:19.823Z,49.48
2016-05-05T12:51:19.826Z,48.71
2016-05-05T12:52:19.843Z,48.9
2016-05-05T12:53:19.862Z,48.23
2016-05-05T12:54:19.865Z,48.52
2016-05-05T12:55:19.899Z,49.29
2016-05-05T12:56:19.902Z,49.67
2016-05-05T12:57:19.920Z,48.93
2016-05-05T12:58:19.922Z,47.49
2016-05-05T12:59:19.784Z,48.64
2016-05-05T13:00:19.976Z,49.6
2016-05-05T13:01:34.028Z,49.02
2016-05-05T13:02:20.387Z,49.69
2016-05-05T13:03:19.873Z,49.31
2016-05-05T13:04:20.001Z,48.93
2016-05-05T13:05:20.004Z,49.31
2016-05-05T13:06:20.022Z,49.41
2016-05-05T13:07:20.041Z,49.41
2016-05-05T13:08:20.044Z,48.76
2016-05-05T13:09:20.062Z,47.7